createdAt,value
2022-08-10T00:01:35.929Z,102225.13
2022-08-10T00:04:03.094Z,102228.78
2022-08-10T00:06:29.900Z,102221.78
2022-08-10T00:08:56.794Z,102220.94
2022-08-10T00:11:24.238Z,102220.16
2022-08-10T00:13:51.442Z,102219.38
2022-08-10T00:16:18.698Z,102214.94
2022-08-10T00:18:45.558Z,102215.91
2022-08-10T00:21:12.382Z,102217.81
2022-08-10T00:23:39.285Z,102220.63
2022-08-10T00:26:07.309Z,102222.47
2022-08-10T00:28:34.330Z,102220.78
2022-08-10T00:31:01.144Z,102215.47
2022-08-10T00:33:27.964Z,102217.28
2022-08-10T00:35:54.773Z,102218.31
2022-08-10T00:38:21.967Z,102213.88
2022-08-10T00:40:48.766Z,102206.78
2022-08-10T00:43:15.684Z,102210.41
2022-08-10T00:45:58.849Z,102205.09
2022-08-10T00:48:30.300Z,102201.63
2022-08-10T00:50:59.625Z,102210.69
2022-08-10T00:53:28.536Z,102209.84
2022-08-10T00:56:35.186Z,102195.53
2022-08-10T00:58:43.057Z,102197.41
2022-08-10T01:02:07.740Z,102200.22
2022-08-10T01:04:57.398Z,102201.22
2022-08-10T01:07:32.570Z,102198.69
2022-08-10T01:10:34.610Z,102199.78
2022-08-10T01:13:22.290Z,102200.75
2022-08-10T01:15:55.530Z,102200.78
2022-08-10T01:18:58.941Z,102192.81
2022-08-10T01:22:04.860Z,102199.16
2022-08-10T01:25:11.226Z,102194.03
2022-08-10T01:28:22.144Z,102194.13
2022-08-10T01:30:53.934Z,102194.22
2022-08-10T01:34:01.861Z,102191.56
2022-08-10T01:36:34.795Z,102183.56
2022-08-10T01:39:04.404Z,102191.75
2022-08-10T01:41:46.349Z,102185.50
2022-08-10T01:44:19.884Z,102186.47
2022-08-10T01:46:52.989Z,102191.06
2022-08-10T01:49:24.730Z,102187.50
2022-08-10T01:51:55.366Z,102185.78
2022-08-10T01:54:25.755Z,102184.94
2022-08-10T01:56:57.294Z,102185.91
2022-08-10T01:59:33.980Z,102195.00
2022-08-10T02:02:06.510Z,102188.78
2022-08-10T02:04:38.239Z,102188.88
2022-08-10T02:07:08.460Z,102184.47
2022-08-10T02:09:42.657Z,102180.97
2022-08-10T02:12:14.104Z,102188.19
2022-08-10T02:14:51.474Z,102184.63
2022-08-10T02:17:59.498Z,102179.28
2022-08-10T02:20:24.436Z,102178.50
2022-08-10T02:23:08.619Z,102184.91
2022-08-10T02:25:42.526Z,102185.88
2022-08-10T02:28:30.574Z,102195.81
2022-08-10T02:31:12.911Z,102194.19
2022-08-10T02:33:57.749Z,102201.41
2022-08-10T02:36:34.370Z,102200.59
2022-08-10T02:39:05.926Z,102198.81
2022-08-10T02:45:08.205Z,102198.91
2022-08-10T02:45:29.242Z,102202.63
2022-08-10T02:48:20.387Z,102200.09
2022-08-10T02:50:58.117Z,102205.50
2022-08-10T02:53:55.031Z,102205.59
2022-08-10T02:56:32.762Z,102206.53
2022-08-10T02:59:16.357Z,102212.88
2022-08-10T03:01:48.894Z,102209.31
2022-08-10T03:04:55.156Z,102215.69
2022-08-10T03:07:16.651Z,102208.59
2022-08-10T03:09:45.583Z,102211.31
2022-08-10T03:12:35.627Z,102206.91
2022-08-10T03:15:03.227Z,102209.69
2022-08-10T03:17:30.912Z,102209.69
2022-08-10T03:20:35.045Z,102204.28
2022-08-10T03:22:48.146Z,102199.88
2022-08-10T03:25:15.862Z,102197.19
2022-08-10T03:27:43.570Z,102189.19
2022-08-10T03:30:29.440Z,102188.31
2022-08-10T03:32:59.004Z,102193.78
2022-08-10T03:35:26.274Z,102181.31
2022-08-10T03:37:59.117Z,102175.06
2022-08-10T03:40:45.465Z,102177.81
2022-08-10T03:43:21.135Z,102177.88
2022-08-10T03:45:54.777Z,102178.88
2022-08-10T03:48:30.080Z,102178.00
2022-08-10T03:51:01.295Z,102182.56
2022-08-10T03:54:02.759Z,102181.69
2022-08-10T03:56:30.252Z,102174.59
2022-08-10T03:58:58.617Z,102180.03
2022-08-10T04:02:43.146Z,102176.47
2022-08-10T04:04:17.805Z,102172.94
2022-08-10T04:06:51.575Z,102176.53
2022-08-10T04:09:21.449Z,102177.47
2022-08-10T04:11:48.390Z,102186.44
2022-08-10T04:14:38.596Z,102187.34
2022-08-10T04:17:02.123Z,102180.22
2022-08-10T04:19:35.645Z,102187.38
2022-08-10T04:22:15.431Z,102190.94
2022-08-10T04:24:45.592Z,102196.38
2022-08-10T04:27:12.973Z,102196.38
2022-08-10T04:29:39.905Z,102198.19
2022-08-10T04:32:10.437Z,102206.25
2022-08-10T04:34:44.020Z,102205.38
2022-08-10T04:37:12.951Z,102206.28
2022-08-10T04:39:40.332Z,102206.28
2022-08-10T04:42:07.497Z,102204.50
2022-08-10T04:44:36.369Z,102204.47
2022-08-10T04:47:03.429Z,102205.38
2022-08-10T04:49:55.190Z,102214.31
2022-08-10T04:52:17.351Z,102219.69
2022-08-10T04:54:44.157Z,102216.03
2022-08-10T04:57:11.586Z,102215.03
2022-08-10T04:59:38.465Z,102219.38
2022-08-10T05:02:28.632Z,102222.63
2022-08-10T05:04:52.149Z,102222.25
2022-08-10T05:07:18.982Z,102231.63
2022-08-10T05:10:02.780Z,102228.19
2022-08-10T05:12:35.603Z,102227.16
2022-08-10T05:15:14.426Z,102224.13
2022-08-10T05:18:09.002Z,102220.94
2022-08-10T05:20:29.776Z,102224.09
2022-08-10T05:22:56.577Z,102227.28
2022-08-10T05:25:23.374Z,102226.84
2022-08-10T05:27:52.312Z,102226.22
2022-08-10T05:30:22.232Z,102217.44
2022-08-10T05:32:56.390Z,102219.69
2022-08-10T05:35:27.626Z,102220.06
2022-08-10T05:38:12.963Z,102219.69
2022-08-10T05:40:47.496Z,102222.19
2022-08-10T05:43:20.526Z,102220.66
2022-08-10T05:46:17.288Z,102226.03
2022-08-10T05:48:58.978Z,102223.66
2022-08-10T05:51:29.135Z,102229.19
2022-08-10T05:54:02.964Z,102231.84
2022-08-10T05:56:56.299Z,102229.84
2022-08-10T06:00:29.575Z,102234.72
2022-08-10T06:02:41.417Z,102229.44
2022-08-10T06:05:14.242Z,102235.09
2022-08-10T06:08:17.640Z,102226.91
2022-08-10T06:11:03.174Z,102239.06
2022-08-10T06:13:59.554Z,102240.00
2022-08-10T06:16:43.177Z,102239.91
2022-08-10T06:19:12.045Z,102238.88
2022-08-10T06:21:55.316Z,102241.75
2022-08-10T06:24:36.247Z,102243.09
2022-08-10T06:27:03.290Z,102243.28
2022-08-10T06:29:34.035Z,102233.91
2022-08-10T06:32:02.984Z,102243.78
2022-08-10T06:34:34.287Z,102243.59
2022-08-10T06:37:05.515Z,102239.97
2022-08-10T06:39:34.497Z,102239.06
2022-08-10T06:42:32.472Z,102234.00
2022-08-10T06:45:03.232Z,102232.72
2022-08-10T06:47:59.683Z,102234.06
2022-08-10T06:50:56.413Z,102236.78
2022-08-10T06:53:53.012Z,102233.81
2022-08-10T06:56:36.862Z,102241.88
2022-08-10T06:59:32.579Z,102244.09
2022-08-10T07:02:13.295Z,102237.84
2022-08-10T07:04:59.486Z,102238.78
2022-08-10T07:07:30.897Z,102239.06
2022-08-10T07:10:01.592Z,102239.25
2022-08-10T07:12:30.933Z,102234.19
2022-08-10T07:14:59.314Z,102230.53
2022-08-10T07:17:28.060Z,102242.19
2022-08-10T07:19:58.014Z,102227.63
2022-08-10T07:23:22.823Z,102227.34
2022-08-10T07:25:25.067Z,102224.03
2022-08-10T07:28:00.735Z,102232.63
2022-08-10T07:30:37.082Z,102228.63
2022-08-10T07:33:05.846Z,102238.81
2022-08-10T07:35:43.191Z,102232.59
2022-08-10T07:38:22.088Z,102234.75
2022-08-10T07:40:52.057Z,102236.22
2022-08-10T07:43:23.798Z,102233.25
2022-08-10T07:45:51.786Z,102230.09
2022-08-10T07:48:47.025Z,102230.97
2022-08-10T07:51:16.477Z,102224.25
2022-08-10T07:53:51.095Z,102222.59
2022-08-10T07:56:47.487Z,102222.66
2022-08-10T07:59:12.262Z,102221.63
2022-08-10T08:01:50.237Z,102221.28
2022-08-10T08:04:19.722Z,102228.88
2022-08-10T08:06:48.094Z,102224.09
2022-08-10T08:09:15.074Z,102226.47
2022-08-10T08:11:44.595Z,102223.34
2022-08-10T08:14:12.945Z,102221.19
2022-08-10T08:16:45.812Z,102222.97
2022-08-10T08:19:37.812Z,102224.69
2022-08-10T08:24:06.977Z,102223.34
2022-08-10T08:24:52.058Z,102224.91
2022-08-10T08:27:20.406Z,102220.53
2022-08-10T08:29:49.897Z,102219.81
2022-08-10T08:32:22.572Z,102222.00
2022-08-10T08:34:54.840Z,102222.31
2022-08-10T08:38:29.470Z,102222.81
2022-08-10T08:40:37.027Z,102216.41
2022-08-10T08:43:35.859Z,102224.75
2022-08-10T08:46:44.456Z,102216.41
2022-08-10T08:49:41.385Z,102212.94
2022-08-10T08:52:42.276Z,102206.06
2022-08-10T08:56:04.199Z,102211.53
2022-08-10T08:58:32.784Z,102207.56
2022-08-10T09:01:38.214Z,102204.88
2022-08-10T09:04:27.549Z,102208.66
2022-08-10T09:07:59.900Z,102208.31
2022-08-10T09:10:49.728Z,102210.53
2022-08-10T09:13:34.613Z,102206.47
2022-08-10T09:16:28.080Z,102203.25
2022-08-10T09:19:11.535Z,102202.53
2022-08-10T09:22:38.246Z,102206.66
2022-08-10T09:25:21.988Z,102195.28
2022-08-10T09:28:08.259Z,102199.19
2022-08-10T09:31:21.371Z,102202.19
2022-08-10T09:36:20.493Z,102196.38
2022-08-10T09:37:08.986Z,102192.31
2022-08-10T09:40:06.719Z,102196.13
2022-08-10T09:43:14.273Z,102181.66
2022-08-10T09:46:11.873Z,102187.13
2022-08-10T09:48:51.210Z,102177.00
2022-08-10T09:51:47.678Z,102174.88
2022-08-10T09:54:56.119Z,102177.44
2022-08-10T09:57:46.313Z,102179.09
2022-08-10T10:00:18.956Z,102173.63
2022-08-10T10:03:27.309Z,102181.81
2022-08-10T10:06:33.086Z,102170.81
2022-08-10T10:09:11.405Z,102179.81
2022-08-10T10:12:09.684Z,102169.25
2022-08-10T10:15:24.185Z,102169.97
2022-08-10T10:18:20.503Z,102162.34
2022-08-10T10:21:53.919Z,102163.41
2022-08-10T10:24:28.825Z,102156.38
2022-08-10T10:27:38.096Z,102156.50
2022-08-10T10:30:09.938Z,102154.66
2022-08-10T10:32:59.359Z,102149.91
2022-08-10T10:35:43.830Z,102151.41
2022-08-10T10:38:13.358Z,102156.63
2022-08-10T10:41:03.036Z,102135.59
2022-08-10T10:43:54.378Z,102142.66
2022-08-10T10:46:52.053Z,102131.00
2022-08-10T10:49:42.668Z,102133.81
2022-08-10T10:53:08.081Z,102142.19
2022-08-10T10:56:13.603Z,102139.28
2022-08-10T10:59:53.477Z,102131.97
2022-08-10T11:02:59.079Z,102137.50
2022-08-10T11:06:01.964Z,102134.59
2022-08-10T11:08:39.451Z,102122.59
2022-08-10T11:11:25.344Z,102131.09
2022-08-10T11:14:26.403Z,102122.81
2022-08-10T11:17:07.725Z,102130.81
2022-08-10T11:20:04.470Z,102126.94
2022-08-10T11:22:57.844Z,102126.66
2022-08-10T11:25:31.959Z,102125.44
2022-08-10T11:28:14.648Z,102129.56
2022-08-10T11:31:15.752Z,102122.16
2022-08-10T11:34:49.182Z,102119.34
2022-08-10T11:37:22.659Z,102111.16
2022-08-10T11:40:01.152Z,102110.94
2022-08-10T11:43:09.234Z,102108.31
2022-08-10T11:45:52.001Z,102111.75
2022-08-10T11:48:53.854Z,102101.59
2022-08-10T11:51:28.771Z,102112.25
2022-08-10T11:54:37.522Z,102104.88
2022-08-10T11:57:04.455Z,102101.00
2022-08-10T11:59:58.044Z,102090.81
2022-08-10T12:02:56.037Z,102089.66
2022-08-10T12:05:51.936Z,102088.41
2022-08-10T12:10:08.871Z,102089.97
2022-08-10T12:11:25.469Z,102086.97
2022-08-10T12:14:23.699Z,102082.97
2022-08-10T12:17:00.910Z,102083.66
2022-08-10T12:19:59.759Z,102083.50
2022-08-10T12:22:56.985Z,102080.56
2022-08-10T12:26:07.511Z,102073.13
2022-08-10T12:29:11.902Z,102074.50
2022-08-10T12:31:48.283Z,102062.38
2022-08-10T12:34:55.536Z,102063.09
2022-08-10T12:38:03.184Z,102060.97
2022-08-10T12:40:39.661Z,102058.72
2022-08-10T12:44:07.841Z,102062.22
2022-08-10T12:46:29.709Z,102052.06
2022-08-10T12:49:29.182Z,102043.44
2022-08-10T12:52:14.923Z,102049.22
2022-08-10T12:54:43.097Z,102045.97
2022-08-10T12:57:17.533Z,102038.31
2022-08-10T12:59:50.132Z,102036.16
2022-08-10T13:02:24.968Z,102026.41
2022-08-10T13:04:56.468Z,102020.41
2022-08-10T13:08:24.677Z,102023.63
2022-08-10T13:10:20.971Z,102020.75
2022-08-10T13:12:51.200Z,102014.22
2022-08-10T13:15:49.305Z,102015.53
2022-08-10T13:18:25.259Z,102019.16
2022-08-10T13:20:56.523Z,102010.06
2022-08-10T13:23:30.049Z,102007.81
2022-08-10T13:25:59.613Z,102005.94
2022-08-10T13:28:47.380Z,102005.94
2022-08-10T13:31:29.637Z,102007.69
2022-08-10T13:34:44.028Z,101998.28
2022-08-10T13:37:16.164Z,101993.34
2022-08-10T13:39:58.743Z,101987.50
2022-08-10T13:42:34.192Z,101980.81
2022-08-10T13:45:11.198Z,101984.09
2022-08-10T13:47:49.621Z,101984.66
2022-08-10T13:50:35.494Z,101987.19
2022-08-10T13:53:14.848Z,101981.59
2022-08-10T13:55:56.483Z,101980.31
2022-08-10T13:58:32.516Z,101974.59
2022-08-10T14:01:02.039Z,101980.81
2022-08-10T14:03:35.531Z,101979.75
2022-08-10T14:06:05.242Z,101976.91
2022-08-10T14:08:33.055Z,101971.44
2022-08-10T14:11:11.494Z,101970.41
2022-08-10T14:14:17.307Z,101967.13
2022-08-10T14:16:45.402Z,101960.13
2022-08-10T14:19:19.254Z,101960.91
2022-08-10T14:21:46.920Z,101961.53
2022-08-10T14:24:31.619Z,101957.59
2022-08-10T14:27:11.682Z,101954.84
2022-08-10T14:29:47.891Z,101958.47
2022-08-10T14:32:19.337Z,101955.75
2022-08-10T14:36:15.457Z,101952.75
2022-08-10T14:37:38.954Z,101950.56
2022-08-10T14:40:13.971Z,101942.25
2022-08-10T14:43:09.303Z,101937.59
2022-08-10T14:45:39.012Z,101949.28
2022-08-10T14:48:13.279Z,101934.47
2022-08-10T14:50:54.916Z,101935.25
2022-08-10T14:53:28.912Z,101927.81
2022-08-10T14:56:02.163Z,101927.69
2022-08-10T14:58:38.934Z,101923.84
2022-08-10T15:01:25.999Z,101925.59
2022-08-10T15:04:16.536Z,101925.59
2022-08-10T15:07:12.671Z,101929.53
2022-08-10T15:10:00.725Z,101915.41
2022-08-10T15:12:38.765Z,101917.69
2022-08-10T15:15:10.103Z,101913.22
2022-08-10T15:17:44.274Z,101914.19
2022-08-10T15:20:21.111Z,101912.22
2022-08-10T15:23:30.774Z,101915.84
2022-08-10T15:26:10.800Z,101911.34
2022-08-10T15:29:22.745Z,101913.31
2022-08-10T15:31:55.733Z,101909.16
2022-08-10T15:34:43.265Z,101906.75
2022-08-10T15:37:39.423Z,101900.47
2022-08-10T15:40:23.862Z,101911.78
2022-08-10T15:43:25.122Z,101903.88
2022-08-10T15:45:59.119Z,101902.16
2022-08-10T15:48:31.686Z,101897.66
2022-08-10T15:51:06.005Z,101903.22
2022-08-10T15:53:51.169Z,101907.81
2022-08-10T15:56:33.355Z,101901.69
2022-08-10T15:59:30.078Z,101902.97
2022-08-10T16:02:14.762Z,101899.91
2022-08-10T16:05:05.462Z,101899.91
2022-08-10T16:07:45.388Z,101895.41
2022-08-10T16:10:26.235Z,101893.66
2022-08-10T16:13:01.065Z,101900.13
2022-08-10T16:15:30.302Z,101899.34
2022-08-10T16:18:18.546Z,101896.91
2022-08-10T16:20:55.387Z,101898.03
2022-08-10T16:23:34.151Z,101888.06
2022-08-10T16:26:17.509Z,101885.22
2022-08-10T16:29:00.418Z,101882.34
2022-08-10T16:31:32.164Z,101888.69
2022-08-10T16:34:04.017Z,101885.00
2022-08-10T16:36:41.680Z,101890.47
2022-08-10T16:39:15.671Z,101893.09
2022-08-10T16:42:05.522Z,101883.13
2022-08-10T16:45:04.598Z,101875.16
2022-08-10T16:47:36.065Z,101877.09
2022-08-10T16:50:08.526Z,101879.09
2022-08-10T16:52:36.187Z,101877.31
2022-08-10T16:55:48.123Z,101872.06
2022-08-10T16:58:15.865Z,101870.31
2022-08-10T17:00:45.322Z,101873.16
2022-08-10T17:04:04.709Z,101871.50
2022-08-10T17:06:10.722Z,101873.56
2022-08-10T17:08:48.569Z,101867.34
2022-08-10T17:11:19.122Z,101870.16
2022-08-10T17:13:46.633Z,101869.41
2022-08-10T17:16:16.896Z,101868.63
2022-08-10T17:18:46.863Z,101865.13
2022-08-10T17:21:21.301Z,101868.06
2022-08-10T17:23:53.368Z,101861.00
2022-08-10T17:26:26.319Z,101860.25
2022-08-10T17:29:58.027Z,101852.25
2022-08-10T17:32:30.813Z,101869.09
2022-08-10T17:35:01.763Z,101859.34
2022-08-10T17:37:35.408Z,101854.94
2022-08-10T17:40:17.277Z,101856.16
2022-08-10T17:42:49.999Z,101850.75
2022-08-10T17:45:46.931Z,101853.72
2022-08-10T17:48:13.315Z,101857.66
2022-08-10T17:50:43.206Z,101852.41
2022-08-10T17:53:21.496Z,101856.31
2022-08-10T17:55:54.602Z,101851.91
2022-08-10T17:58:25.067Z,101859.47
2022-08-10T18:01:38.716Z,101851.47
2022-08-10T18:03:54.678Z,101858.13
2022-08-10T18:06:22.943Z,101861.00
2022-08-10T18:08:57.021Z,101855.75
2022-08-10T18:11:32.466Z,101856.06
2022-08-10T18:14:06.450Z,101859.09
2022-08-10T18:16:34.506Z,101863.03
2022-08-10T18:19:12.002Z,101863.19
2022-08-10T18:21:44.806Z,101862.66
2022-08-10T18:24:17.938Z,101862.84
2022-08-10T18:26:51.464Z,101859.50
2022-08-10T18:29:23.344Z,101861.69
2022-08-10T18:31:57.768Z,101857.38
2022-08-10T18:34:26.066Z,101862.28
2022-08-10T18:36:54.046Z,101861.75
2022-08-10T18:39:29.269Z,101861.19
2022-08-10T18:42:18.633Z,101862.66
2022-08-10T18:44:52.438Z,101864.78
2022-08-10T18:47:30.735Z,101873.38
2022-08-10T18:50:24.202Z,101863.03
2022-08-10T18:52:58.187Z,101873.38
2022-08-10T18:55:46.244Z,101877.34
2022-08-10T18:58:51.317Z,101873.50
2022-08-10T19:01:49.145Z,101878.53
2022-08-10T19:04:42.781Z,101875.31
2022-08-10T19:08:03.874Z,101879.56
2022-08-10T19:11:10.080Z,101880.06
2022-08-10T19:14:20.089Z,101874.19
2022-08-10T19:16:57.446Z,101873.66
2022-08-10T19:19:56.045Z,101884.03
2022-08-10T19:22:55.879Z,101883.59
2022-08-10T19:26:42.217Z,101877.72
2022-08-10T19:29:16.782Z,101880.88
2022-08-10T19:32:09.098Z,101872.97
2022-08-10T19:34:53.257Z,101875.09
2022-08-10T19:37:37.055Z,101878.25
2022-08-10T19:40:11.901Z,101883.09
2022-08-10T19:42:53.610Z,101880.63
2022-08-10T19:45:56.117Z,101875.59
2022-08-10T19:48:59.374Z,101877.00
2022-08-10T19:51:48.723Z,101880.06
2022-08-10T19:54:32.293Z,101882.09
2022-08-10T19:57:23.133Z,101897.88
2022-08-10T20:00:27.034Z,101895.59
2022-08-10T20:03:35.207Z,101893.94
2022-08-10T20:06:20.025Z,101892.31
2022-08-10T20:09:06.695Z,101893.44
2022-08-10T20:11:49.505Z,101895.53
2022-08-10T20:14:25.946Z,101892.03
2022-08-10T20:17:01.501Z,101903.09
2022-08-10T20:19:54.769Z,101894.25
2022-08-10T20:22:37.333Z,101899.84
2022-08-10T20:25:26.427Z,101891.94
2022-08-10T20:28:40.682Z,101894.13
2022-08-10T20:31:18.031Z,101897.78
2022-08-10T20:34:01.854Z,101898.94
2022-08-10T20:36:33.948Z,101899.09
2022-08-10T20:39:15.092Z,101899.25
2022-08-10T20:42:04.674Z,101898.63
2022-08-10T20:44:43.351Z,101897.81
2022-08-10T20:47:27.624Z,101894.44
2022-08-10T20:50:21.698Z,101890.19
2022-08-10T20:52:52.147Z,101893.03
2022-08-10T20:55:22.379Z,101887.72
2022-08-10T20:58:28.175Z,101889.97
2022-08-10T21:01:17.082Z,101880.09
2022-08-10T21:04:13.494Z,101895.84
2022-08-10T21:07:28.680Z,101893.34
2022-08-10T21:10:35.833Z,101895.59
2022-08-10T21:13:44.518Z,101892.31
2022-08-10T21:17:03.844Z,101888.94
2022-08-10T21:20:01.049Z,101891.81
2022-08-10T21:22:37.298Z,101891.97
2022-08-10T21:25:15.429Z,101884.94
2022-08-10T21:28:41.290Z,101891.72
2022-08-10T21:31:41.470Z,101895.53
2022-08-10T21:34:56.232Z,101901.28
2022-08-10T21:37:58.759Z,101897.13
2022-08-10T21:41:18.052Z,101893.75
2022-08-10T21:44:08.683Z,101893.53
2022-08-10T21:47:39.522Z,101894.50
2022-08-10T21:50:28.003Z,101892.84
2022-08-10T21:53:44.586Z,101885.97
2022-08-10T21:56:48.494Z,101887.06
2022-08-10T21:59:56.079Z,101880.19
2022-08-10T22:02:49.760Z,101877.75
2022-08-10T22:05:44.145Z,101876.16
2022-08-10T22:08:33.773Z,101874.59
2022-08-10T22:11:22.465Z,101883.84
2022-08-10T22:14:09.305Z,101889.47
2022-08-10T22:17:59.660Z,101879.81
2022-08-10T22:20:41.242Z,101878.25
2022-08-10T22:23:55.217Z,101881.31
2022-08-10T22:27:46.447Z,101883.41
2022-08-10T22:30:25.097Z,101878.19
2022-08-10T22:33:40.367Z,101882.00
2022-08-10T22:36:50.916Z,101875.00
2022-08-10T22:40:23.311Z,101885.34
2022-08-10T22:43:12.811Z,101875.56
2022-08-10T22:46:17.384Z,101881.28
2022-08-10T22:48:59.273Z,101876.06
2022-08-10T22:51:54.325Z,101880.78
2022-08-10T22:54:49.843Z,101887.59
2022-08-10T22:57:36.921Z,101881.31
2022-08-10T23:00:14.153Z,101889.53
2022-08-10T23:02:50.965Z,101877.97
2022-08-10T23:05:30.559Z,101880.84
2022-08-10T23:08:29.935Z,101882.72
2022-08-10T23:11:05.397Z,101883.78
2022-08-10T23:13:36.961Z,101876.72
2022-08-10T23:16:28.452Z,101878.69
2022-08-10T23:19:10.632Z,101882.47
2022-08-10T23:22:04.288Z,101883.56
2022-08-10T23:24:38.664Z,101880.16
2022-08-10T23:27:12.075Z,101879.41
2022-08-10T23:30:03.813Z,101882.31
2022-08-10T23:32:33.316Z,101881.63
2022-08-10T23:36:29.930Z,101879.88
2022-08-10T23:37:56.210Z,101874.75
2022-08-10T23:40:23.601Z,101876.63
2022-08-10T23:42:52.509Z,101878.56
2022-08-10T23:45:23.918Z,101871.56
2022-08-10T23:47:56.977Z,101875.34
2022-08-10T23:50:25.029Z,101876.34
2022-08-10T23:53:01.133Z,101879.25
2022-08-10T23:55:49.125Z,101879.44
2022-08-10T23:58:31.919Z,101874.19
